Kaltag, AK

5:19 PM AKDT on September 21, 2014 (GMT -0800)
Kaltag | Change Station
CLOSE
Current Station
Airport
Location: Kaltag,
Elevation: 200 ft
Nearby Weather Stations

Elev 200 ft 64.32 °N, 158.74 °W | Updated 26 minutes ago

Overcast
Overcast
49 °F
Feels Like 49 °F
N
9
Wind Variable Wind from North

Today
High -- | Low -- °F
--% Chance of Precip.
Yesterday
High -- | Low -- °F
Precip. -- in
8:15 AM 8:38 PM
Waning Crescent, 5% visible
Pressure 29.80 in
Visibility 10.0 miles
Clouds Overcast 5000 ft
Dew Point 27 °F
Humidity 43%
Rainfall 0.00 in
Snow Depth 1 in , 0 in , 1 in
UV 0 out of 12
Pollen Not available.
Air Quality Not available.
Flu Activity Not available.
METAR PAKV 220053Z AUTO 36008KT 10SM OVC050 09/M03 A2979 RMK AO1 SLP091 T00941028 TSNO

More Conditions Fewer Conditions

Pressure 29.80 in
Visibility 10.0 miles
Clouds Overcast 5000 ft
Dew Point 27 °F
Humidity 43%
Rainfall 0.00 in
Snow Depth 1 in , 0 in , 1 in
UV 0 out of 12
Pollen Not available.
Air Quality Not available.
Flu Activity Not available.
METAR PAKV 220053Z AUTO 36008KT 10SM OVC050 09/M03 A2979 RMK AO1 SLP091 T00941028 TSNO

More Conditions Fewer Conditions

10-Day Weather Forecast

Almanac

Astronomy

Sep. 21, 2014 Rise Set
Actual Time 8:15 AM AKDT 8:38 PM AKDT
Civil Twilight 7:27 AM AKDT 9:26 PM AKDT
Nautical Twilight 6:27 AM AKDT 10:25 PM AKDT
Astronomical Twilight 5:18 AM AKDT 11:33 PM AKDT
Moon 5:23 AM AKDT (9/21) 7:46 PM AKDT (9/21)
Length of Visible Light 13h 59m
Length of Day
12h 22m
Tomorrow will be 6m 29s shorter.
Waning Crescent, 5% of the Moon is Illuminated
Today
Waning Crescent
Sep 24
New
Oct 1
First Quarter
Oct 8
Full
Oct 15
Last Quarter

Today's Extremes

State Highs State Lows

Community

WunderPhotos

Upload Photos

1,755,324 photos uploaded!

WunderBlogs® & News

Nearby

Snow Depth

Station Depth Elevation
Upper Chena 1 in 2850 ft
Fort Yukon 0 in 430 ft
Eagle Summit 1 in 3650 ft
Grouse Creek Divide 0 in 700 ft
Summit Creek 0 in 1400 ft

Earthquake Activity

City Distance Mag. Time & Date
No recent earthquake activity has been reported nearby.
Minimum magnitude displayed is 2.5.

Coastal Water Temperatures

Place Temperature
No Stations Reporting

Nearby Weather Stations